Terminal Aerodrome Forecast
Issued by NWS

Current Version | Previous Version | Graphics & Text | Print | Product List | Glossary On
Versions: 1 2 3 4 5 6 7 8 9 10 11 12 13 14 15 16 17 18 19 20 21 22 23 24 25
000
FTUS41 KRLX 241700 RRA
TAFCKB
TAF
KCKB 241759Z 2418/2518 22008KT P6SM SCT120
     FM250300 24010G16KT P6SM SCT035 BKN100
     FM250800 25010G16KT 5SM -SHSN OVC025
     FM251400 26008KT P6SM BKN030=

USA.gov is the U.S. government's official web portal to all federal, state and local government web resources and services.